NCAR-RAP Real-Time Weather Data

Output produced by METARs form (12 August 2020  18:26 UTC)
found at http://weather.rap.ucar.edu/surface/
 
KIAD 121752Z 18005KT 10SM FEW030 SCT045 BKN085 31/23 A3001 RMK AO2 SLP160 T03110228 10317 20233 58009
KIAD 121652Z VRB04KT 10SM FEW027 SCT130 SCT250 31/23 A3003 RMK AO2 SLP167 T03060228
KIAD 121552Z 10004KT 10SM SCT027 SCT130 SCT250 31/23 A3004 RMK AO2 SLP169 T03060233
KIAD 121452Z 00000KT 10SM FEW030 SCT140 SCT250 29/23 A3004 RMK AO2 SLP169 T02940233 51006
KIAD 121352Z 34004KT 10SM BKN120 BKN250 27/23 A3004 RMK AO2 SLP168 T02670228
KIAD 121252Z 36005KT 10SM FEW090 SCT130 SCT250 26/22 A3003 RMK AO2 SLP165 T02560222
KIAD 121152Z 34004KT 10SM SCT090 BKN120 23/22 A3002 RMK AO2 RAE25 SLP163 P0002 60066 70066 T02280217 10261 20222 50003
KIAD 121052Z 00000KT 7SM -RA FEW008 BKN045 OVC110 22/21 A3004 RMK AO2 TSE33 SLP167 TS MOV E P0007 T02220211
KIAD 121033Z 28006KT 7SM -RA SCT008 BKN045 OVC075 22/21 A3004 RMK AO2 TSE33 TS MOV E P0005 T02220211 $
KIAD 120952Z 29005KT 6SM TSRA BR SCT008 SCT030 BKN045CB OVC130 22/22 A3004 RMK AO2 RAB06 SLP167 OCNL LTGICCG ALQDS TS ALQDS MOV E P0041 T02220217 $
KIAD 120852Z 19006KT 10SM TS FEW010 SCT023 BKN047CB OVC130 23/22 A3002 RMK AO2 LTG DSNT S RAB01E38 SLP160 OCNL LTGICCG E-SW TS E-SW MOV NE P0016 60016 T02280217 53012 $
KIAD 120752Z 19011KT 10SM TS FEW010 SCT033 BKN045CB OVC150 24/22 A3000 RMK AO2 LTG DSNT SE AND S SLP154 OCNL LTGICCG SE-SW TS SE-SW MOV NE VCSH T02390222 $
KIAD 120652Z 16008KT 10SM TS FEW010 SCT033 BKN045CB BKN150 OVC250 26/23 A2999 RMK AO2 TSB32 SLP150 FRQ LTGICCG E-S TS E-S MOV N T02560233
KIAD 120633Z 17004KT 10SM TS BKN048CB BKN150 OVC250 26/23 A2998 RMK AO2 TSB32 OCNL LTGICCG S TS S MOV N T02560233
KIAD 120552Z 00000KT 10SM SCT050 SCT100 BKN250 25/23 A2998 RMK AO2 SLP148 T02500228 10294 20244 53006
KIAD 120452Z 19005KT 10SM FEW100 BKN250 26/23 A2997 RMK AO2 SLP144 T02560228 403330222
KIAD 120352Z 19004KT 10SM SCT060 SCT250 26/23 A2997 RMK AO2 SLP144 T02610228
KIAD 120252Z 20003KT 10SM FEW150 SCT250 26/23 A2996 RMK AO2 SLP142 T02610228 53010
KIAD 120152Z 17003KT 10SM FEW080 SCT150 27/23 A2995 RMK AO2 SLP138 T02670233
KIAD 120052Z 17004KT 10SM SCT060 BKN150 BKN250 29/23 A2993 RMK AO2 SLP133 T02890228
KIAD 112352Z 18004KT 10SM FEW050TCU BKN150 BKN250 29/22 A2993 RMK AO2 SLP132 TCU N AND E T02940217 10333 20294 53003
KIAD 112252Z 21006KT 10SM FEW050 SCT150 BKN250 31/22 A2991 RMK AO2 SLP126 T03110217
KIAD 112152Z 22008KT 10SM CLR 32/22 A2992 RMK AO2 SLP129 T03220217
KIAD 112052Z 21006KT 10SM SCT045TCU BKN120 BKN200 33/21 A2992 RMK AO2 SLP129 TCU W T03280211 55010
KIAD 111952Z COR 22007KT 10SM FEW035 SCT065 SCT170CLR 33/21 A2992 RMK AO2 SLP128 T03280211
KIAD 111852Z VRB05KT 10SM FEW040 SCT065 SCT170 32/22 A2993 RMK AO2 LTG DSNT W SLP132 T03220222
KIAD 111752Z 21009KT 10SM SCT033 SCT055 SCT130 32/22 A2995 RMK AO2 SLP139 T03170222 10322 20244 58013
KIAD 111652Z 21009G15KT 10SM FEW013 FEW029 31/23 A2997 RMK AO2 SLP144 T03060233
KIAD 111552Z 20006KT 10SM FEW013 FEW250 30/23 A2998 RMK AO2 SLP150 T03000233
KIAD 111452Z 21004KT 10SM FEW013 FEW250 29/24 A2999 RMK AO2 SLP152 T02940239 51008
KIAD 111352Z 17004KT 10SM FEW013 FEW250 27/23 A2998 RMK AO2 SLP149 T02720228
KIAD 111252Z 22005KT 10SM FEW010 FEW025 SCT250 26/23 A2998 RMK AO2 SLP148 T02610228
KIAD 111152Z 18004KT 10SM FEW250 24/23 A2997 RMK AO2 SLP143 T02440228 10244 20222 51005
KIAD 111052Z 00000KT 9SM BKN250 23/22 A2997 RMK AO2 SLP143 T02330222 $
KIAD 110952Z 16005KT 10SM BKN250 23/22 A2995 RMK AO2 SLP139 T02330222 $
KIAD 110852Z 00000KT 8SM FEW010 FEW120 SCT250 23/23 A2995 RMK AO2 SLP138 T02330228 56010 $
KIAD 110752Z 15004KT 10SM FEW250 23/22 A2995 RMK AO2 SLP139 T02330222 $
KIAD 110652Z 00000KT 10SM FEW120 FEW250 23/22 A2998 RMK AO2 SLP147 T02330217 $
KIAD 110552Z 18004KT 10SM FEW010 FEW250 23/22 A2998 RMK AO2 SLP149 T02330222 10283 20228 58004 $
KIAD 110452Z 15004KT 10SM CLR 23/22 A2999 RMK AO2 SLP150 T02330217 403390217 $
KIAD 110352Z 00000KT 10SM CLR 24/22 A2999 RMK AO2 SLP152 T02390217
KIAD 110252Z 00000KT 10SM CLR 25/22 A2999 RMK AO2 SLP152 T02500217 53008
KIAD 110152Z 17005KT 10SM CLR 26/22 A2999 RMK AO2 SLP150 T02610217
KIAD 110052Z 18005KT 10SM FEW065 FEW100 27/22 A2997 RMK AO2 SLP145 T02720222
KIAD 102352Z 16007KT 10SM FEW065 SCT080 28/22 A2997 RMK AO2 SLP144 ACC N AND NE T02830217 10339 20283 55005
KIAD 102252Z 18009G16KT 10SM SCT065TCU 30/22 A2996 RMK AO2 SLP142 TCU N AND E T03000222
KIAD 102152Z 15008KT 10SM SCT055TCU BKN090 32/22 A2997 RMK AO2 SLP146 TCU E T03220217
KIAD 102052Z 13007KT 110V170 10SM SCT055 SCT070 SCT200 33/21 A2998 RMK AO2 SLP149 T03280206 56018
KIAD 101952Z 18005KT 10SM SCT060 BKN080 33/19 A3000 RMK AO2 SLP155 T03280194
KIAD 101852Z VRB04KT 10SM SCT055 BKN080 33/21 A3002 RMK AO2 SLP161 T03280206